Time;durP1;ratioP1;P1;durP2;ratioP2;P2;SDS_P1;SDS_P2;PMS_P1;PMS_P2;Temp;Humidity;BMP_temperature;BMP_pressure;BME280_temperature;BME280_humidity;BME280_pressure;Samples;Min_cycle;Max_cycle;Signal;HPM_P1;HPM_P2
2021/09/15 00:00:29;;;;;;;32.25;19.50;;;;;;;20.09;75.01;101163.81;5072660;28;20099;-48
2021/09/15 00:02:55;;;;;;;33.53;20.63;;;;;;;20.05;75.39;101167.44;5073393;28;20042;-47
2021/09/15 00:05:20;;;;;;;33.47;21.17;;;;;;;20.04;75.55;101161.25;5068669;28;20039;-47
2021/09/15 00:07:45;;;;;;;34.17;20.00;;;;;;;20.03;75.57;101159.50;5067511;28;20487;-48
2021/09/15 00:10:11;;;;;;;31.15;19.48;;;;;;;20.02;75.81;101156.88;5066834;28;20213;-49
2021/09/15 00:12:36;;;;;;;32.80;19.25;;;;;;;20.11;75.89;101157.59;5066582;28;20084;-49
2021/09/15 00:15:02;;;;;;;37.40;20.50;;;;;;;20.20;75.71;101159.16;5071970;28;20028;-48
2021/09/15 00:17:27;;;;;;;37.58;21.05;;;;;;;20.17;75.82;101162.75;5069205;28;20056;-48
2021/09/15 00:19:52;;;;;;;35.22;21.30;;;;;;;20.24;75.73;101151.13;5069548;28;20032;-47
2021/09/15 00:22:18;;;;;;;37.78;22.00;;;;;;;20.27;75.57;101147.53;5055319;28;20049;-49
2021/09/15 00:24:43;;;;;;;35.60;20.90;;;;;;;20.32;75.67;101145.66;5064849;28;20392;-51
2021/09/15 00:27:08;;;;;;;38.47;22.20;;;;;;;20.32;75.93;101136.81;5069522;28;20028;-49
2021/09/15 00:29:34;;;;;;;43.17;23.00;;;;;;;20.36;76.02;101143.84;5068302;28;20036;-48
2021/09/15 00:31:59;;;;;;;37.80;22.45;;;;;;;20.39;75.76;101138.47;5069690;28;20119;-47
2021/09/15 00:34:29;;;;;;;38.25;22.80;;;;;;;20.41;75.82;101134.88;5073106;28;20052;-46
2021/09/15 00:36:57;;;;;;;35.38;21.13;;;;;;;20.43;75.32;101137.50;5069041;28;20406;-49
2021/09/15 00:39:23;;;;;;;38.42;21.95;;;;;;;20.39;75.18;101138.47;5051980;28;20405;-48
2021/09/15 00:41:49;;;;;;;35.00;20.40;;;;;;;20.31;75.10;101135.09;5064616;28;20020;-48
2021/09/15 00:44:14;;;;;;;36.92;22.73;;;;;;;20.27;75.07;101136.94;5062903;28;20081;-51
2021/09/15 00:46:40;;;;;;;35.67;21.50;;;;;;;20.16;75.36;101141.59;5067348;28;21369;-47
2021/09/15 00:49:06;;;;;;;40.08;22.67;;;;;;;20.01;75.35;101142.78;5071924;28;20484;-48
2021/09/15 00:51:36;;;;;;;38.72;23.45;;;;;;;20.01;75.58;101136.63;5069264;28;20288;-48
2021/09/15 00:54:04;;;;;;;39.65;22.92;;;;;;;20.07;75.47;101144.44;5064626;28;20213;-49
2021/09/15 00:56:30;;;;;;;39.72;21.98;;;;;;;20.05;75.39;101144.47;5056090;28;20436;-47
2021/09/15 00:58:55;;;;;;;38.03;21.63;;;;;;;20.04;75.63;101139.22;5066475;28;20042;-46
2021/09/15 01:01:20;;;;;;;40.60;23.05;;;;;;;20.00;75.68;101138.41;5073558;28;20024;-48
2021/09/15 01:03:46;;;;;;;40.72;22.90;;;;;;;19.97;75.56;101137.59;5067091;28;20032;-50
2021/09/15 01:06:11;;;;;;;40.10;23.95;;;;;;;19.89;75.55;101134.22;5070974;28;20498;-48
2021/09/15 01:08:37;;;;;;;37.40;21.98;;;;;;;19.85;75.44;101131.66;5063485;28;20103;-50
2021/09/15 01:11:02;;;;;;;40.78;23.17;;;;;;;19.81;75.68;101135.28;5042681;28;21176;-49
2021/09/15 01:13:29;;;;;;;41.97;23.40;;;;;;;19.75;75.46;101138.06;5065692;28;20459;-47
2021/09/15 01:15:55;;;;;;;39.40;23.55;;;;;;;19.69;75.51;101134.66;5066772;28;20031;-47
2021/09/15 01:18:20;;;;;;;40.40;24.67;;;;;;;19.62;75.61;101140.97;5070366;28;20351;-51
2021/09/15 01:20:46;;;;;;;44.25;24.52;;;;;;;19.56;75.68;101141.09;5066812;28;20023;-49
2021/09/15 01:23:11;;;;;;;43.15;24.25;;;;;;;19.54;75.78;101142.88;5070802;28;20016;-46
2021/09/15 01:25:37;;;;;;;41.25;22.98;;;;;;;19.49;75.71;101140.31;5071060;28;20585;-49
2021/09/15 01:28:02;;;;;;;42.47;23.60;;;;;;;19.49;75.82;101139.44;5062224;28;20031;-48
2021/09/15 01:30:28;;;;;;;40.42;22.20;;;;;;;19.51;75.98;101141.19;5068975;28;20363;-52
2021/09/15 01:32:53;;;;;;;41.88;23.98;;;;;;;19.49;75.93;101135.03;5066697;28;20039;-50
2021/09/15 01:35:19;;;;;;;40.38;23.55;;;;;;;19.47;75.63;101133.31;5070407;28;20028;-50
2021/09/15 01:37:44;;;;;;;45.10;25.38;;;;;;;19.38;75.61;101132.56;5068751;28;20600;-48
2021/09/15 01:40:10;;;;;;;45.40;24.83;;;;;;;19.33;76.06;101129.13;5070604;28;20039;-49
2021/09/15 01:42:35;;;;;;;43.63;23.65;;;;;;;19.33;75.80;101126.47;5051896;28;20028;-49
2021/09/15 01:45:04;;;;;;;43.25;24.45;;;;;;;19.30;75.88;101123.91;5069366;28;20296;-50
2021/09/15 01:47:29;;;;;;;44.35;25.35;;;;;;;19.26;76.00;101121.34;5071688;28;20028;-47
2021/09/15 01:49:55;;;;;;;52.13;27.52;;;;;;;19.27;76.25;101117.81;5067420;28;20827;-47
2021/09/15 01:52:20;;;;;;;53.05;28.45;;;;;;;19.31;76.32;101117.72;5069689;28;20050;-47
2021/09/15 01:54:46;;;;;;;54.08;29.02;;;;;;;19.33;76.50;101118.53;5075034;28;20069;-47
2021/09/15 01:57:11;;;;;;;55.17;29.45;;;;;;;19.37;76.39;101122.00;5067848;28;20051;-49
2021/09/15 01:59:37;;;;;;;55.45;28.35;;;;;;;19.43;76.49;101124.53;5046604;28;20508;-48
2021/09/15 02:02:02;;;;;;;56.53;27.95;;;;;;;19.52;76.50;101124.38;5071186;28;20070;-49
2021/09/15 02:04:28;;;;;;;64.50;30.85;;;;;;;19.56;76.46;101122.56;5066154;28;20048;-52
2021/09/15 02:06:54;;;;;;;56.15;30.05;;;;;;;19.62;76.56;101128.63;5052070;28;20029;-48
2021/09/15 02:09:20;;;;;;;60.28;28.92;;;;;;;19.57;76.44;101116.38;5068450;28;20532;-48
2021/09/15 02:11:45;;;;;;;67.63;32.35;;;;;;;19.55;76.73;101119.06;5071704;28;20092;-49
2021/09/15 02:14:11;;;;;;;56.88;27.95;;;;;;;19.56;76.41;101114.63;5069660;28;20108;-51
2021/09/15 02:16:37;;;;;;;69.05;32.83;;;;;;;19.54;76.65;101108.50;5062674;28;20039;-47
2021/09/15 02:19:02;;;;;;;52.50;26.33;;;;;;;19.55;76.36;101115.53;5071611;28;20028;-49
2021/09/15 02:21:27;;;;;;;71.25;33.03;;;;;;;19.50;76.66;101117.41;5051526;28;20036;-49
2021/09/15 02:23:53;;;;;;;66.95;30.90;;;;;;;19.46;76.37;101124.50;5064422;28;20369;-46
2021/09/15 02:26:18;;;;;;;65.60;32.47;;;;;;;19.41;76.94;101121.91;5070591;28;20028;-47
2021/09/15 02:28:44;;;;;;;69.85;32.47;;;;;;;19.39;76.89;101115.78;5072845;28;20035;-54
2021/09/15 02:31:10;;;;;;;60.83;29.08;;;;;;;19.39;76.55;101121.06;5071970;28;20046;-49
2021/09/15 02:33:35;;;;;;;59.05;28.52;;;;;;;19.36;76.54;101117.63;5072797;28;20106;-50
2021/09/15 02:36:01;;;;;;;47.25;24.75;;;;;;;19.31;76.35;101117.72;5051215;28;20069;-47
2021/09/15 02:38:26;;;;;;;56.90;27.40;;;;;;;19.29;76.54;101116.00;5055540;28;20192;-47
2021/09/15 02:40:52;;;;;;;58.45;28.42;;;;;;;19.27;76.35;101118.66;5076614;28;20116;-50
2021/09/15 02:43:18;;;;;;;54.53;26.70;;;;;;;19.26;76.22;101118.69;5068754;28;20052;-48
2021/09/15 02:45:43;;;;;;;51.63;26.20;;;;;;;19.23;76.24;101116.97;5057079;28;20480;-48
2021/09/15 02:48:08;;;;;;;57.20;28.63;;;;;;;19.18;76.29;101110.91;5074645;28;20031;-47
2021/09/15 02:50:34;;;;;;;61.53;29.95;;;;;;;19.15;76.55;101116.22;5070656;28;20035;-48
2021/09/15 02:53:00;;;;;;;60.35;30.23;;;;;;;19.14;76.29;101111.88;5071039;28;20186;-47
2021/09/15 02:55:25;;;;;;;50.85;26.83;;;;;;;19.10;76.26;101104.88;5069517;28;20129;-49
2021/09/15 02:57:51;;;;;;;62.40;30.48;;;;;;;19.11;76.47;101105.75;5073962;28;20265;-51
2021/09/15 03:00:16;;;;;;;55.92;28.67;;;;;;;19.10;76.73;101093.44;5071961;28;20062;-50
2021/09/15 03:02:42;;;;;;;57.75;28.77;;;;;;;19.08;76.55;101101.41;5068532;28;20024;-49
2021/09/15 03:05:07;;;;;;;59.30;28.75;;;;;;;19.01;76.51;101099.78;5068143;28;20100;-51
2021/09/15 03:07:33;;;;;;;55.65;28.73;;;;;;;18.94;76.27;101095.50;5072385;28;20523;-48
2021/09/15 03:09:58;;;;;;;54.13;27.50;;;;;;;18.91;76.23;101091.13;5068488;28;20467;-52
2021/09/15 03:12:24;;;;;;;64.93;30.92;;;;;;;18.93;76.68;101097.25;5070279;28;20054;-48
2021/09/15 03:14:49;;;;;;;65.47;29.52;;;;;;;19.00;76.67;101095.38;5068033;28;20031;-47
2021/09/15 03:17:14;;;;;;;66.68;31.95;;;;;;;19.12;76.86;101099.56;5068167;28;20048;-49
2021/09/15 03:19:40;;;;;;;76.72;34.95;;;;;;;19.23;77.31;101098.47;5054547;28;20093;-52
2021/09/15 03:22:05;;;;;;;64.30;29.95;;;;;;;19.41;77.26;101092.84;5067915;28;20128;-47
2021/09/15 03:24:30;;;;;;;75.60;33.95;;;;;;;19.55;77.53;101092.59;5052933;28;20433;-47
2021/09/15 03:26:56;;;;;;;76.55;35.47;;;;;;;19.59;77.42;101082.81;5072130;28;20131;-49
2021/09/15 03:29:21;;;;;;;70.70;33.78;;;;;;;19.64;77.30;101076.53;5068288;28;20043;-49
2021/09/15 03:31:46;;;;;;;72.43;34.50;;;;;;;19.63;77.07;101072.19;5066084;28;20774;-48
2021/09/15 03:34:12;;;;;;;64.25;30.55;;;;;;;19.59;76.77;101066.94;5069305;28;20034;-49
2021/09/15 03:36:37;;;;;;;61.75;30.80;;;;;;;19.50;76.51;101062.75;5070312;28;20051;-51
2021/09/15 03:39:04;;;;;;;58.75;29.85;;;;;;;19.41;76.26;101071.69;5067165;28;20296;-51
2021/09/15 03:41:30;;;;;;;65.03;31.30;;;;;;;19.29;76.32;101074.56;5069104;28;20051;-49
2021/09/15 03:43:55;;;;;;;60.33;30.45;;;;;;;19.18;76.08;101068.63;5071812;28;20028;-50
2021/09/15 03:46:20;;;;;;;54.67;26.70;;;;;;;19.14;75.94;101074.88;5069630;28;20060;-46
2021/09/15 03:48:46;;;;;;;53.70;26.38;;;;;;;19.10;76.06;101077.56;5071045;28;20028;-47
2021/09/15 03:51:12;;;;;;;59.35;30.38;;;;;;;18.99;76.06;101088.34;5053670;28;20036;-48
2021/09/15 03:53:37;;;;;;;60.80;30.38;;;;;;;18.94;76.20;101082.28;5037163;28;20729;-48
2021/09/15 03:56:03;;;;;;;64.13;30.65;;;;;;;18.93;76.37;101083.16;5071826;28;20042;-48
2021/09/15 03:58:28;;;;;;;53.00;25.75;;;;;;;18.93;76.33;101089.31;5068996;28;20468;-50
2021/09/15 04:00:53;;;;;;;59.00;28.17;;;;;;;18.93;76.42;101086.69;5070251;28;20606;-52
2021/09/15 04:03:19;;;;;;;66.55;30.50;;;;;;;18.94;76.72;101084.91;5066297;28;20123;-48
2021/09/15 04:05:44;;;;;;;62.67;27.40;;;;;;;18.95;76.51;101086.66;5069819;28;20435;-52
2021/09/15 04:08:09;;;;;;;69.82;31.13;;;;;;;18.96;76.53;101089.28;5064864;28;20539;-48
2021/09/15 04:10:35;;;;;;;59.67;27.48;;;;;;;18.95;76.81;101090.19;5052238;28;20494;-46
2021/09/15 04:13:00;;;;;;;60.55;27.98;;;;;;;18.98;76.71;101089.25;5050479;28;20534;-57
2021/09/15 04:15:26;;;;;;;68.63;29.85;;;;;;;18.97;76.61;101093.66;5067635;28;20032;-51
2021/09/15 04:17:51;;;;;;;64.05;29.67;;;;;;;18.95;76.69;101086.66;5051288;28;20028;-49
2021/09/15 04:20:17;;;;;;;66.28;32.00;;;;;;;18.88;76.65;101090.31;5066830;28;20020;-50
2021/09/15 04:22:43;;;;;;;74.07;34.50;;;;;;;18.83;76.67;101093.03;5072547;28;20028;-48
2021/09/15 04:33:24;;;;;;;75.20;32.15;;;;;;;18.77;76.77;101094.91;5069227;28;20040;-49
2021/09/15 04:35:49;;;;;;;67.75;30.00;;;;;;;18.75;76.67;101076.44;5064618;28;20027;-48
2021/09/15 04:38:14;;;;;;;67.00;30.45;;;;;;;18.76;76.70;101090.53;5068395;28;20020;-48
2021/09/15 04:40:40;;;;;;;68.72;30.90;;;;;;;18.75;76.87;101094.94;5070660;28;20332;-50
2021/09/15 04:43:05;;;;;;;77.13;32.83;;;;;;;18.76;77.06;101093.16;5069274;28;20032;-47
2021/09/15 04:45:31;;;;;;;94.68;39.40;;;;;;;18.78;77.37;101094.88;5066883;28;20098;-47
2021/09/15 04:47:56;;;;;;;82.95;36.08;;;;;;;18.83;76.72;101092.16;5068314;28;20024;-47
2021/09/15 04:50:21;;;;;;;85.05;36.00;;;;;;;18.86;77.21;101086.81;5068017;28;20041;-49
2021/09/15 04:52:47;;;;;;;75.75;31.77;;;;;;;18.84;77.20;101081.56;5072301;28;20023;-48
2021/09/15 04:55:12;;;;;;;68.82;29.58;;;;;;;18.84;77.01;101083.34;5063839;28;20035;-48
2021/09/15 04:57:38;;;;;;;78.80;34.15;;;;;;;18.85;77.25;101088.56;5070379;28;20246;-50
2021/09/15 05:00:04;;;;;;;91.25;35.42;;;;;;;18.82;76.96;101080.72;5062806;28;20044;-52
2021/09/15 05:02:29;;;;;;;79.63;34.03;;;;;;;18.81;77.22;101078.97;5074842;28;20291;-48
2021/09/15 05:04:54;;;;;;;87.07;33.33;;;;;;;18.85;77.14;101080.66;5069814;28;20164;-52
2021/09/15 05:07:20;;;;;;;106.28;40.30;;;;;;;18.87;77.28;101078.88;5066540;28;20220;-51
2021/09/15 05:09:45;;;;;;;91.65;34.92;;;;;;;18.92;77.11;101073.50;5066354;28;20036;-49
2021/09/15 05:12:10;;;;;;;90.85;37.38;;;;;;;18.95;77.33;101084.03;5067728;28;20028;-47
2021/09/15 05:14:36;;;;;;;95.93;38.47;;;;;;;18.99;77.35;101081.28;5064213;28;20440;-47
2021/09/15 05:17:01;;;;;;;88.47;35.88;;;;;;;19.01;77.34;101087.44;5073328;28;20034;-48
2021/09/15 05:19:27;;;;;;;91.07;36.20;;;;;;;19.03;77.06;101085.63;5068145;28;20761;-47
2021/09/15 05:21:52;;;;;;;94.18;35.45;;;;;;;19.07;77.03;101089.09;5073952;28;20024;-50
2021/09/15 05:24:17;;;;;;;89.93;34.00;;;;;;;19.07;77.09;101091.72;5063623;28;20032;-51
2021/09/15 05:26:43;;;;;;;105.32;37.55;;;;;;;19.11;77.07;101097.81;5068859;28;20377;-49
2021/09/15 05:29:08;;;;;;;114.82;39.30;;;;;;;19.18;77.34;101102.09;5066526;28;20778;-47
2021/09/15 05:31:34;;;;;;;119.57;40.63;;;;;;;19.23;77.49;101103.75;5050170;28;20154;-49
2021/09/15 05:33:59;;;;;;;117.35;39.03;;;;;;;19.30;77.36;101094.81;5072010;28;20065;-47
2021/09/15 05:36:27;;;;;;;115.22;39.03;;;;;;;19.34;77.37;101099.13;5062705;28;20411;-50
2021/09/15 05:38:52;;;;;;;100.72;36.53;;;;;;;19.31;77.28;101101.84;5070597;28;20032;-50
2021/09/15 05:41:18;;;;;;;103.68;36.88;;;;;;;19.30;77.29;101102.75;5069589;28;20073;-48
2021/09/15 05:43:43;;;;;;;110.18;35.67;;;;;;;19.32;77.34;101097.44;5070147;28;20080;-48
2021/09/15 05:46:09;;;;;;;111.72;36.83;;;;;;;19.38;77.22;101100.84;5064533;28;20020;-51
2021/09/15 05:48:34;;;;;;;101.68;37.60;;;;;;;19.42;77.33;101101.63;5067015;28;20028;-49
2021/09/15 05:50:59;;;;;;;115.70;39.10;;;;;;;19.48;77.31;101101.56;5070140;28;20024;-53
2021/09/15 05:53:25;;;;;;;108.93;39.30;;;;;;;19.53;77.53;101104.09;5070439;28;20028;-49
2021/09/15 05:55:50;;;;;;;104.25;38.22;;;;;;;19.59;77.28;101117.19;5063816;28;20028;-52
2021/09/15 05:58:17;;;;;;;97.13;37.17;;;;;;;19.63;77.23;101129.50;5067065;28;20028;-48
2021/09/15 06:00:43;;;;;;;106.00;38.33;;;;;;;19.68;77.13;101124.97;5075121;28;20504;-54
2021/09/15 06:03:08;;;;;;;100.15;37.50;;;;;;;19.68;77.12;101114.38;5072285;28;20151;-48
2021/09/15 06:05:34;;;;;;;94.03;34.92;;;;;;;19.71;76.82;101109.91;5051952;28;20099;-50
2021/09/15 06:07:59;;;;;;;88.45;35.00;;;;;;;19.76;77.03;101118.59;5073999;28;20028;-47
2021/09/15 06:10:24;;;;;;;85.82;35.72;;;;;;;19.86;76.66;101127.25;5070395;28;20487;-47
2021/09/15 06:12:50;;;;;;;92.47;36.25;;;;;;;20.06;76.75;101132.13;5073029;28;20343;-51
2021/09/15 06:15:15;;;;;;;74.63;33.95;;;;;;;20.29;76.51;101132.47;5049421;28;20085;-49
2021/09/15 06:17:41;;;;;;;72.55;33.25;;;;;;;20.50;75.82;101129.38;5067872;28;20034;-47
2021/09/15 06:20:06;;;;;;;64.35;30.90;;;;;;;20.63;74.64;101135.25;5074879;28;20054;-50
2021/09/15 06:22:34;;;;;;;63.28;30.67;;;;;;;20.74;74.19;101132.34;5074350;28;20039;-48
2021/09/15 06:24:59;;;;;;;58.50;29.73;;;;;;;20.88;73.73;101127.56;5056059;28;20037;-50
2021/09/15 06:27:25;;;;;;;58.10;28.90;;;;;;;21.32;73.79;101129.13;5068204;28;20054;-49
2021/09/15 06:29:50;;;;;;;49.03;26.33;;;;;;;21.98;71.42;101125.50;5055693;28;20063;-49
2021/09/15 06:32:20;;;;;;;41.67;25.20;;;;;;;22.59;68.77;101113.84;5066635;28;20027;-48
2021/09/15 06:34:46;;;;;;;45.40;25.40;;;;;;;23.27;66.31;101131.97;5069886;28;20185;-48
2021/09/15 06:37:15;;;;;;;41.22;24.90;;;;;;;23.94;63.39;101129.56;5071321;28;20020;-48
2021/09/15 06:39:40;;;;;;;39.35;24.48;;;;;;;24.55;61.58;101122.75;5061371;28;20063;-49
2021/09/15 06:42:06;;;;;;;34.65;22.10;;;;;;;25.07;60.19;101125.97;5063082;28;20555;-48
2021/09/15 06:44:31;;;;;;;37.15;22.98;;;;;;;25.38;58.43;101126.34;5068928;28;20282;-48
2021/09/15 06:46:56;;;;;;;36.75;23.42;;;;;;;25.29;59.10;101137.44;5050464;28;20446;-47
2021/09/15 06:49:22;;;;;;;34.63;22.70;;;;;;;25.25;57.63;101131.34;5065865;28;20111;-48
2021/09/15 06:51:47;;;;;;;32.53;22.23;;;;;;;25.02;58.13;101128.78;5069299;28;20028;-48
2021/09/15 06:54:12;;;;;;;32.53;22.48;;;;;;;24.50;60.51;101141.59;5048704;28;20025;-52
2021/09/15 06:56:38;;;;;;;33.90;22.20;;;;;;;24.25;60.23;101151.47;5048683;28;20043;-49
2021/09/15 06:59:03;;;;;;;29.48;21.23;;;;;;;24.08;60.93;101146.75;5050605;28;20558;-49
2021/09/15 07:01:29;;;;;;;33.00;21.00;;;;;;;23.98;61.31;101148.03;5069622;28;20576;-49
2021/09/15 07:03:55;;;;;;;30.42;19.70;;;;;;;23.83;61.65;101149.47;5069613;28;20147;-47
2021/09/15 07:06:20;;;;;;;28.08;18.65;;;;;;;;;;5071932;28;20438;-51
2021/09/15 07:08:48;;;;;;;23.48;16.85;;;;;;;;;;5064275;28;20215;-47
2021/09/15 07:11:13;;;;;;;21.02;14.82;;;;;;;23.79;60.37;101150.50;5071877;28;20024;-49
2021/09/15 07:13:39;;;;;;;19.70;13.95;;;;;;;23.85;59.69;101158.25;5069553;28;20088;-48
2021/09/15 07:16:04;;;;;;;16.42;12.82;;;;;;;23.80;60.24;101156.69;5067403;28;20105;-48
2021/09/15 07:18:30;;;;;;;18.08;12.82;;;;;;;23.42;60.47;101153.56;5066742;28;20121;-50
2021/09/15 07:20:55;;;;;;;17.85;12.40;;;;;;;23.14;61.71;101151.94;5070231;28;20111;-47
2021/09/15 07:23:21;;;;;;;18.58;12.63;;;;;;;22.85;62.15;101156.44;5070860;28;20024;-47
2021/09/15 07:25:46;;;;;;;16.85;11.55;;;;;;;22.66;63.04;101155.25;5070149;28;20050;-49
2021/09/15 07:28:11;;;;;;;14.57;10.27;;;;;;;22.43;62.93;101163.09;5068723;28;20024;-48
2021/09/15 07:30:37;;;;;;;13.73;10.35;;;;;;;22.32;63.47;101157.25;5065387;28;20032;-49
2021/09/15 07:33:02;;;;;;;15.40;9.65;;;;;;;22.12;64.22;101158.72;5059608;28;20249;-49
2021/09/15 07:35:27;;;;;;;10.77;8.90;;;;;;;22.18;63.36;101158.53;5074287;28;20082;-51
2021/09/15 07:37:53;;;;;;;14.18;8.85;;;;;;;22.15;63.57;101155.94;5066889;28;20031;-50
2021/09/15 07:40:18;;;;;;;11.73;7.78;;;;;;;22.11;64.37;101159.63;5069072;28;20043;-49
2021/09/15 07:42:45;;;;;;;12.18;8.23;;;;;;;21.95;63.66;101157.44;5072115;28;20620;-47
2021/09/15 07:45:12;;;;;;;9.98;6.93;;;;;;;21.83;63.70;101153.34;5062164;28;20024;-47
2021/09/15 07:47:38;;;;;;;11.60;7.45;;;;;;;21.67;63.31;101150.25;5064615;28;20028;-51
2021/09/15 07:50:04;;;;;;;9.75;7.75;;;;;;;21.59;63.83;101146.06;5065922;28;20047;-49
2021/09/15 07:52:29;;;;;;;10.15;7.55;;;;;;;21.50;65.00;101143.66;5067915;28;20031;-49
2021/09/15 07:54:54;;;;;;;11.45;7.47;;;;;;;21.40;64.77;101151.88;5069464;28;20413;-48
2021/09/15 07:57:20;;;;;;;8.18;6.10;;;;;;;21.44;64.64;101140.25;5065545;28;20063;-48
2021/09/15 07:59:45;;;;;;;9.82;6.13;;;;;;;21.45;64.97;101143.78;5068087;28;20066;-47
2021/09/15 08:02:11;;;;;;;7.75;5.70;;;;;;;21.48;63.96;101138.38;5068808;28;20036;-49
2021/09/15 08:04:37;;;;;;;8.32;5.43;;;;;;;21.59;63.76;101143.41;5064557;28;20032;-51
2021/09/15 08:07:02;;;;;;;10.30;5.38;;;;;;;21.69;63.41;101131.63;5065563;28;20028;-48
2021/09/15 08:09:28;;;;;;;9.05;5.13;;;;;;;21.83;62.17;101140.91;5064196;28;20040;-49
2021/09/15 08:11:53;;;;;;;7.80;5.35;;;;;;;21.91;62.53;101134.53;5064300;28;20015;-51
2021/09/15 08:14:18;;;;;;;8.27;4.40;;;;;;;22.00;61.68;101131.66;5065212;28;20015;-47
2021/09/15 08:16:44;;;;;;;6.85;4.72;;;;;;;22.00;61.25;101126.34;5069644;28;20092;-49
2021/09/15 08:19:09;;;;;;;6.60;4.63;;;;;;;21.96;62.49;101128.19;5067777;28;20381;-48
2021/09/15 08:21:34;;;;;;;8.18;4.72;;;;;;;21.96;62.74;101122.88;5063857;28;20821;-51
2021/09/15 08:24:00;;;;;;;9.65;4.88;;;;;;;21.93;61.97;101124.75;5061378;28;20039;-52
2021/09/15 08:26:26;;;;;;;7.20;4.88;;;;;;;22.01;62.34;101118.34;5072562;28;20020;-48
2021/09/15 08:28:51;;;;;;;8.68;4.45;;;;;;;22.09;62.56;101123.38;5065388;28;20250;-49
2021/09/15 08:31:17;;;;;;;8.73;4.80;;;;;;;22.05;63.18;101129.72;5066444;28;20026;-53
2021/09/15 08:33:42;;;;;;;6.47;3.95;;;;;;;22.13;61.29;101130.38;5070628;28;20127;-52
2021/09/15 08:36:07;;;;;;;9.45;4.00;;;;;;;22.19;60.88;101125.75;5066222;28;20134;-47
2021/09/15 08:38:33;;;;;;;7.03;4.00;;;;;;;22.19;60.78;101122.22;5070964;28;20115;-51
2021/09/15 08:41:00;;;;;;;7.75;4.10;;;;;;;22.20;61.09;101123.97;5067762;28;20028;-48
2021/09/15 08:43:25;;;;;;;12.13;3.80;;;;;;;22.27;60.56;101125.50;5050019;28;20050;-48
2021/09/15 08:45:50;;;;;;;8.02;3.00;;;;;;;22.34;59.53;101136.78;5065618;28;20506;-48
2021/09/15 08:48:18;;;;;;;6.47;2.70;;;;;;;22.33;58.79;101135.06;5068451;28;20028;-48
2021/09/15 08:50:49;;;;;;;5.00;2.20;;;;;;;22.31;60.31;101143.09;5069302;28;20145;-49
2021/09/15 08:53:14;;;;;;;4.60;2.00;;;;;;;22.36;59.03;101143.81;5038600;28;20020;-47
2021/09/15 08:55:40;;;;;;;3.95;1.60;;;;;;;22.56;58.91;101145.84;5064989;28;20039;-50
2021/09/15 08:58:05;;;;;;;3.33;1.55;;;;;;;22.66;58.19;101150.81;5045373;28;20032;-49
2021/09/15 09:00:31;;;;;;;7.30;1.80;;;;;;;22.70;58.55;101148.03;5069244;28;20070;-47
2021/09/15 09:02:56;;;;;;;3.45;1.30;;;;;;;22.83;58.34;101144.97;5066309;28;20036;-47
2021/09/15 09:05:21;;;;;;;5.82;1.48;;;;;;;22.86;58.27;101155.53;5067946;28;20023;-49
2021/09/15 09:07:47;;;;;;;4.13;1.52;;;;;;;22.82;58.32;101153.00;5067756;28;20061;-51
2021/09/15 09:10:14;;;;;;;4.78;1.48;;;;;;;22.88;58.27;101152.78;5064487;28;20039;-49
2021/09/15 09:12:44;;;;;;;3.40;1.38;;;;;;;22.82;59.63;101147.69;5068995;28;20395;-52
2021/09/15 09:15:17;;;;;;;5.78;1.20;;;;;;;22.86;58.68;101155.53;5065587;28;20085;-49
2021/09/15 09:17:43;;;;;;;4.45;1.30;;;;;;;22.84;57.74;101151.16;5066967;28;20028;-49
2021/09/15 09:20:28;;;;;;;5.63;1.50;;;;;;;22.88;57.83;101144.81;5064393;28;20062;-48
2021/09/15 09:23:09;;;;;;;5.28;1.60;;;;;;;22.97;58.10;101152.50;5064870;28;20039;-49
2021/09/15 09:25:52;;;;;;;5.68;1.50;;;;;;;22.92;58.82;101149.13;5053756;28;20023;-50
2021/09/15 09:28:34;;;;;;;5.72;1.40;;;;;;;22.93;58.58;101158.84;5065887;28;20023;-49
2021/09/15 09:31:05;;;;;;;5.85;1.40;;;;;;;22.93;57.81;101158.84;5067310;28;20036;-48
2021/09/15 09:33:31;;;;;;;4.13;1.42;;;;;;;22.80;58.24;101155.72;5065245;28;20085;-48
2021/09/15 09:36:04;;;;;;;3.45;1.50;;;;;;;22.84;58.20;101164.47;5051342;28;20031;-48
2021/09/15 09:38:31;;;;;;;3.50;1.55;;;;;;;22.71;58.77;101161.28;5067011;28;20613;-48
2021/09/15 09:41:02;;;;;;;5.50;1.50;;;;;;;22.75;58.79;101170.09;5065315;28;20020;-50
2021/09/15 09:43:29;;;;;;;6.68;1.58;;;;;;;22.72;59.72;101167.47;5066451;28;20459;-48
2021/09/15 09:45:55;;;;;;;5.90;1.35;;;;;;;22.75;59.45;101170.09;5063025;28;20319;-47
2021/09/15 09:48:34;;;;;;;5.75;1.80;;;;;;;22.90;58.23;101170.44;5064707;28;20031;-48
2021/09/15 09:51:01;;;;;;;5.60;1.50;;;;;;;23.00;58.05;101171.88;5062575;28;20028;-49
2021/09/15 09:53:27;;;;;;;6.30;1.70;;;;;;;22.87;57.92;101175.84;5067126;28;20847;-51
2021/09/15 09:55:57;;;;;;;4.78;1.60;;;;;;;22.83;59.24;101179.53;5067093;28;20428;-47
2021/09/15 09:58:23;;;;;;;4.85;1.88;;;;;;;22.91;58.78;101176.63;5029378;28;20054;-49
2021/09/15 10:00:52;;;;;;;5.68;1.80;;;;;;;22.82;58.38;101183.13;5069220;28;20539;-52
2021/09/15 10:03:17;;;;;;;6.72;1.83;;;;;;;22.80;59.38;101184.97;5049555;28;20016;-49
2021/09/15 10:05:43;;;;;;;8.60;1.88;;;;;;;22.81;58.47;101188.50;5066460;28;20050;-48
2021/09/15 10:08:09;;;;;;;6.50;1.67;;;;;;;22.88;58.80;101187.34;5045287;28;20393;-50
2021/09/15 10:10:36;;;;;;;5.97;1.70;;;;;;;22.82;58.81;101188.44;5064296;28;21514;-49
2021/09/15 10:13:02;;;;;;;7.90;1.80;;;;;;;22.85;58.74;101184.81;5072030;28;20161;-50
2021/09/15 10:15:28;;;;;;;9.38;1.80;;;;;;;22.93;58.37;101183.63;5057598;28;20028;-50
2021/09/15 10:17:55;;;;;;;5.57;1.55;;;;;;;22.89;59.24;101178.47;5059755;28;20028;-49
2021/09/15 10:20:26;;;;;;;6.10;1.70;;;;;;;23.02;58.92;101183.34;5067291;28;20043;-49
2021/09/15 10:22:51;;;;;;;8.07;1.73;;;;;;;23.15;57.94;101182.94;5046459;28;20039;-52
2021/09/15 10:25:18;;;;;;;7.13;1.60;;;;;;;23.32;58.31;101168.13;5065558;28;20036;-53
2021/09/15 10:28:08;;;;;;;5.95;1.80;;;;;;;23.50;59.06;101171.97;5060112;28;20051;-52
2021/09/15 10:30:48;;;;;;;4.95;1.65;;;;;;;23.77;57.11;101168.34;5063421;28;20032;-47
2021/09/15 10:33:37;;;;;;;6.57;1.95;;;;;;;23.95;56.04;101163.25;5068483;28;20038;-49
2021/09/15 10:36:23;;;;;;;5.28;1.75;;;;;;;24.07;56.67;101169.00;5051871;28;20049;-49
2021/09/15 10:38:55;;;;;;;4.00;1.75;;;;;;;24.07;55.80;101178.78;5061235;28;20067;-54
2021/09/15 10:41:42;;;;;;;5.40;1.90;;;;;;;23.83;55.69;101183.22;5060782;28;20107;-50
2021/09/15 10:44:15;;;;;;;7.78;1.88;;;;;;;23.76;56.32;101182.56;5058628;28;20024;-52
2021/09/15 10:46:42;;;;;;;6.50;2.30;;;;;;;23.70;56.80;101177.47;5066746;28;20120;-51
2021/09/15 10:49:20;;;;;;;6.35;2.10;;;;;;;23.41;56.51;101174.94;5052295;28;20561;-50
2021/09/15 10:51:47;;;;;;;4.35;2.10;;;;;;;23.43;57.29;101183.72;5071567;28;20499;-51
2021/09/15 10:54:47;;;;;;;5.80;2.30;;;;;;;23.28;57.30;101184.25;5068594;28;20290;-49
2021/09/15 10:57:18;;;;;;;6.07;2.30;;;;;;;23.24;56.84;101187.94;5045094;28;20021;-53
2021/09/15 10:59:53;;;;;;;6.15;2.40;;;;;;;23.03;57.18;101192.19;5074013;28;20089;-49
2021/09/15 11:02:31;;;;;;;7.78;2.40;;;;;;;22.98;58.60;101197.66;5065939;28;20038;-50
2021/09/15 11:04:58;;;;;;;5.55;2.53;;;;;;;22.91;57.78;101195.25;5066368;28;20032;-50
2021/09/15 11:07:45;;;;;;;6.03;2.70;;;;;;;22.92;60.24;101187.22;5067175;28;20631;-50
2021/09/15 11:10:34;;;;;;;6.32;2.50;;;;;;;22.94;59.56;101192.47;5065114;28;20051;-49
2021/09/15 11:13:00;;;;;;;5.85;2.30;;;;;;;22.91;58.45;101196.13;5050874;28;20031;-50
2021/09/15 11:15:28;;;;;;;4.93;2.30;;;;;;;22.86;59.24;101197.19;5069103;28;20028;-47
2021/09/15 11:17:53;;;;;;;6.47;2.60;;;;;;;22.80;59.04;101192.94;5072393;28;21199;-49
2021/09/15 11:20:23;;;;;;;5.13;2.10;;;;;;;23.02;60.10;101198.44;5066618;28;20099;-49